• Join FlightAware (Why Join?)
  • Login
  • US Flag 
11:13AM EDT


 

Airport Tracker/Info


-or-


 

Live Flight TrackerFlight Track Log ✈ SWA652 ✈ 20-Jun-2013 ✈ KLAS - KPHX

Flight Track Log - Related Links

Times and Time Zones

All times are in EDT time to prevent confusion due to time zone crossing. See the SWA652 flight status page for this flight to view local times or setup timezone preferences in your user account.

Time Position Orientation Groundspeed Altitude Reporting Facility
EDT Latitude Longitude Course Direction KTS MPH feet Rate Location/Type
12:22PM 36.0756 -115.1658 271° West 152 175 3,600  Level Los Angeles Center
12:23PM 36.0761 -115.2081 271° West 186 214 5,000 1,740 Climbing Los Angeles Center
12:24PM 36.0647 -115.2522 252° West 244 281 5,900 1,500 Climbing Los Angeles Center
12:25PM 35.9922 -115.2906 203° Southwest 279 321 7,500 2,520 Climbing Los Angeles Center
12:26PM 35.9231 -115.2642 163° South 286 329 11,200 3,480 Climbing Los Angeles Center
12:27PM 35.9086 -115.1453 98° East 350 403 14,700 3,420 Climbing Los Angeles Center
12:28PM 35.8969 -115.0178 96° East 369 425 18,300 3,600 Climbing Los Angeles Center
12:29PM 35.8797 -114.8519 97° East 402 463 22,200 3,120 Climbing Los Angeles Center
12:30PM 35.8697 -114.7372 96° East 419 482 24,800 3,180 Climbing Los Angeles Center
12:31PM 35.8419 -114.5703 102° East 416 479 28,800 1,980 Climbing Los Angeles Center
12:32PM 35.7800 -114.4528 123° Southeast 407 468 29,000 60 Climbing Los Angeles Center
12:33PM 35.7172 -114.3361 124° Southeast 406 467 29,000  Level Los Angeles Center
12:34PM 35.6503 -114.2114 123° Southeast 406 467 29,000  Level Los Angeles Center
12:35PM 35.5900 -114.0969 123° Southeast 404 465 29,000  Level Los Angeles Center
12:36PM 35.5292 -113.9831 123° Southeast 402 463 29,000  Level Los Angeles Center
12:37PM 35.4550 -113.8467 124° Southeast 403 464 29,000  Level Los Angeles Center
12:38PM 35.3931 -113.7317 123° Southeast 406 467 29,000  Level Los Angeles Center
12:39PM 35.3311 -113.6172 124° Southeast 407 468 29,000  Level Los Angeles Center
12:40PM 35.2689 -113.5033 124° Southeast 407 468 29,000  Level Los Angeles Center
12:41PM 35.2061 -113.3892 124° Southeast 408 470 29,000  Level Los Angeles Center
12:42PM 35.1319 -113.2522 123° Southeast 409 471 29,000  Level Los Angeles Center
12:43PM 35.0706 -113.1408 124° Southeast 404 465 29,000  Level Los Angeles Center
12:44PM 35.0081 -113.0289 124° Southeast 405 466 29,000  Level Los Angeles Center
12:45PM 34.9381 -112.9017 124° Southeast 450 518 29,000  Level Los Angeles Center
12:46PM 34.8533 -112.7489 124° Southeast 455 524 29,000 -120 Level Albuquerque Center
12:47PM 34.7828 -112.6231 124° Southeast 455 524 28,800 -1,320 Descending Albuquerque Center
12:48PM 34.7128 -112.5003 125° Southeast 449 517 26,300 -2,040 Descending Albuquerque Center
12:50PM 34.6278 -112.4075 138° Southeast 427 491 24,600 -2,220 Descending Albuquerque Center
12:51PM 34.5231 -112.3061 141° Southeast 412 474 21,800 -2,280 Descending Albuquerque Center
12:52PM 34.4378 -112.2275 143° Southeast 400 460 20,000 -960 Descending Albuquerque Center
12:53PM 34.3406 -112.2036 169° South 371 427 19,900 -1,140 Descending Albuquerque Center
12:54PM 34.2469 -112.1781 167° South 356 410 17,700 -2,040 Descending Albuquerque Center
12:55PM 34.1567 -112.1553 168° South 338 389 15,700 -1,560 Descending Albuquerque Center
12:56PM 34.0697 -112.1378 171° South 320 368 14,500 -1,560 Descending Albuquerque Center
12:57PM 33.9744 -112.1483 185° South 291 335 12,500 -1,740 Descending Albuquerque Center
12:58PM 33.8975 -112.1567 185° South 282 325 11,000 -1,380 Descending Albuquerque Center
12:59PM 33.8236 -112.1739 191° South 274 315 9,700 -1,380 Descending Albuquerque Center
01:00PM 33.7511 -112.1883 189° South 267 307 8,200 -1,080 Descending Albuquerque Center
01:01PM 33.6686 -112.2050 190° South 249 287 7,500 -1,020 Descending Albuquerque Center
01:02PM 33.6064 -112.2192 191° South 232 267 6,200 -1,020 Descending Albuquerque Center
01:03PM 33.5425 -112.2328 190° South 232 267 5,500 -840 Descending Albuquerque Center
01:04PM 33.4814 -112.2297 178° South 228 262 4,500 -840 Descending Albuquerque Center
01:05PM 33.4408 -112.1769 133° Southeast 211 243 3,800 -840 Descending Albuquerque Center
01:06PM 33.4408 -112.1244 90° East 167 192 2,800 -1,020 Descending Albuquerque Center
01:07PM 33.4411 -112.0686 90° East 140 161 1,800 -840 Descending Albuquerque Center
01:08PM 33.4403 -112.0219 91° East 133 153 1,100 -720 Descending Albuquerque Center